Flight Track Log - Related Links

Times and Time Zones

All times are in EDT time to prevent confusion due to time zone crossing. See the GGN7283 flight status page for this flight to view local times or setup timezone preferences in your user account.

Time Position Orientation Groundspeed Altitude Reporting Facility
EDT Latitude Longitude Course Direction KTS MPH feet Rate Location/Type
Tue 05:19:40 PM 42.7339 -73.8081 183° South 138 159 1,200  Level Boston Center
Tue 05:20:26 PM 42.7006 -73.8103 183° South 147 169 2,600 1,940 Climbing Boston Center
Tue 05:21:53 PM 42.6853 -73.8778 221° Southwest 171 197 5,500 2,019 Climbing Boston Center
Tue 05:23:54 PM 42.7742 -73.9167 342° North 145 167 9,600 1,978 Climbing Boston Center
Tue 05:24:52 PM 42.8261 -73.9319 348° North 164 189 11,400 1,983 Climbing Boston Center
Tue 05:25:52 PM 42.8844 -73.9392 355° North 187 215 13,500 1,884 Climbing Boston Center
Tue 05:26:53 PM 42.9344 -73.9489 352° North 201 231 15,200 1,686 Climbing Boston Center
Tue 05:27:53 PM 42.9967 -73.9617 351° North 201 231 16,900 1,537 Climbing Boston Center
Tue 05:28:54 PM 43.0550 -73.9744 351° North 201 231 18,300 1,240 Climbing Boston Center
Tue 05:29:54 PM 43.1108 -73.9900 349° North 211 243 19,400 850 Climbing Boston Center
Tue 05:30:54 PM 43.1756 -74.0003 353° North 222 255 20,000 305 Climbing Boston Center
Tue 05:31:52 PM 43.2100 -74.0639 307° West 204 235 20,000  Level Boston Center
Tue 05:32:53 PM 43.2025 -74.1492 263° West 176 203 20,000  Level Boston Center
Tue 05:33:53 PM 43.2075 -74.2319 275° West 205 236 20,000  Level Boston Center
Tue 05:34:52 PM 43.2061 -74.3144 269° West 222 255 20,000  Level Boston Center
Tue 05:35:53 PM 43.2028 -74.3969 267° West 222 255 20,000  Level Boston Center
Tue 05:36:53 PM 43.2033 -74.4794 271° West 222 255 20,000  Level Boston Center
Tue 05:37:54 PM 43.2017 -74.5678 269° West 222 255 20,000  Level Boston Center
Tue 05:38:55 PM 43.2000 -74.6503 268° West 222 255 20,000  Level Boston Center
Tue 05:39:52 PM 43.1986 -74.7328 269° West 222 255 20,000  Level Boston Center
Tue 05:40:52 PM 43.1967 -74.8183 268° West 222 255 20,000  Level Boston Center
Tue 05:41:53 PM 43.1928 -74.9064 267° West 222 255 20,000  Level Boston Center
Tue 05:42:54 PM 43.1931 -74.9919 270° West 227 261 20,000  Level Boston Center
Tue 05:43:54 PM 43.1911 -75.0772 268° West 232 267 20,000  Level Boston Center
Tue 05:44:54 PM 43.1892 -75.1625 268° West 232 267 20,000  Level Boston Center
Tue 05:45:52 PM 43.1869 -75.2481 268° West 232 267 20,000  Level Boston Center
Tue 05:46:53 PM 43.1847 -75.3333 268° West 232 267 20,000  Level Boston Center
Tue 05:47:53 PM 43.1847 -75.4186 270° West 232 267 20,000  Level Boston Center
Tue 05:48:54 PM 43.1803 -75.5125 266° West 232 267 20,000  Level Boston Center
Tue 05:49:54 PM 43.1778 -75.5978 268° West 232 267 20,000  Level Boston Center
Tue 05:50:52 PM 43.1753 -75.6861 268° West 232 267 20,000  Level Boston Center
Tue 05:51:53 PM 43.1753 -75.7658 270° West 232 267 20,000  Level Boston Center
Tue 05:52:54 PM 43.1725 -75.8511 267° West 232 267 20,000  Level Boston Center
Tue 05:53:54 PM 43.1700 -75.9364 268° West 232 267 20,000  Level Boston Center
Tue 05:56:10 PM 43.1619 -76.1197 267° West 220 253 20,000  Level Cleveland Center
Tue 05:57:10 PM 43.1608 -76.2025 269° West 220 253 20,000  Level Cleveland Center
Tue 05:58:10 PM 43.1558 -76.2853 265° West 220 253 20,000  Level Cleveland Center
Tue 05:59:10 PM 43.1464 -76.3714 261° West 220 253 20,000  Level Cleveland Center
Tue 06:00:10 PM 43.1411 -76.4544 265° West 220 253 20,000  Level Cleveland Center
Tue 06:01:10 PM 43.1336 -76.5403 263° West 220 253 20,000  Level Cleveland Center
Tue 06:02:10 PM 43.1239 -76.6233 261° West 220 253 20,000  Level Cleveland Center
Tue 06:03:10 PM 43.1186 -76.7064 265° West 220 253 20,000  Level Cleveland Center
Tue 06:04:10 PM 43.1086 -76.7864 260° West 220 253 20,000  Level Cleveland Center
Tue 06:05:10 PM 43.1031 -76.8694 265° West 220 253 20,000  Level Cleveland Center
Tue 06:06:10 PM 43.0953 -76.9522 263° West 220 253 20,000  Level Cleveland Center
Tue 06:07:10 PM 43.0872 -77.0353 262° West 220 253 20,000  Level Cleveland Center
Tue 06:08:10 PM 43.0814 -77.1181 265° West 220 253 20,000 -100 Level Cleveland Center
Tue 06:09:10 PM 43.0714 -77.2011 261° West 220 253 19,800 -450 Descending Cleveland Center
Tue 06:10:10 PM 43.0636 -77.2894 263° West 225 259 19,100 -1,150 Descending Cleveland Center
Tue 06:11:10 PM 43.0578 -77.3750 265° West 230 265 17,500 -1,600 Descending Cleveland Center
Tue 06:12:10 PM 43.0475 -77.4636 261° West 235 270 15,900 -1,550 Descending Cleveland Center
Tue 06:13:10 PM 43.0481 -77.5547 271° West 235 270 14,400 -698 Descending Cleveland Center
Tue 06:15:02 PM 43.0667 -77.7167 279° West 250 288 13,900 -174 Descending Toronto Center
Tue 06:16:02 PM 43.0833 -77.8000 285° West 240 276 13,900  Level Toronto Center
Tue 06:17:02 PM 43.1000 -77.9000 283° West 240 276 13,900 50 Level Toronto Center
Tue 06:18:02 PM 43.1000 -77.9833 270° West 240 276 14,000 50 Climbing Toronto Center
Tue 06:19:02 PM 43.1167 -78.0833 283° West 240 276 14,000 -47 Level Toronto Center
Tue 06:20:10 PM 43.1483 -78.1931 292° West 240 276 13,900 -47 Descending Cleveland Center
Tue 06:21:10 PM 43.1583 -78.2808 279° West 240 276 13,900  Level Cleveland Center
Tue 06:22:10 PM 43.1725 -78.3686 283° West 240 276 13,900  Level Cleveland Center
Tue 06:23:10 PM 43.1847 -78.4564 281° West 235 270 13,900  Level Cleveland Center
Tue 06:24:10 PM 43.1944 -78.5414 279° West 235 270 13,900  Level Cleveland Center
Tue 06:25:10 PM 43.2067 -78.6322 280° West 235 270 13,900  Level Cleveland Center
Tue 06:26:10 PM 43.2183 -78.7203 280° West 235 270 13,900 -50 Level Cleveland Center
Tue 06:27:10 PM 43.2322 -78.8022 283° West 235 270 13,800 -907 Descending Cleveland Center
Tue 06:29:02 PM 43.2500 -78.9500 279° West 260 299 11,300 -1,430 Descending Toronto Center
Tue 06:30:02 PM 43.2667 -79.0667 281° West 250 288 9,700 -1,100 Descending Toronto Center
Tue 06:31:02 PM 43.2667 -79.1333 270° West 240 276 9,100 -350 Descending Toronto Center
Tue 06:32:02 PM 43.2833 -79.2167 285° West 230 265 9,000 -50 Descending Toronto Center
Tue 06:33:02 PM 43.2833 -79.3167 270° West 230 265 9,000 -100 Level Toronto Center
Tue 06:34:02 PM 43.3333 -79.3833 316° Northwest 230 265 8,800 -500 Descending Toronto Center
Tue 06:35:02 PM 43.4000 -79.4000 350° North 250 288 8,000 -400 Descending Toronto Center
Tue 06:36:02 PM 43.4667 -79.4500 331° Northwest 250 288 8,000  Level Toronto Center
Tue 06:37:02 PM 43.5333 -79.4500 360° North 240 276 8,000 -350 Level Toronto Center
Tue 06:38:02 PM 43.6000 -79.4500 360° North 240 276 7,300 -1,350 Descending Toronto Center
Tue 06:39:02 PM 43.6500 -79.4000 36° Northeast 230 265 5,300 -1,900 Descending Toronto Center
Tue 06:40:02 PM 43.7000 -79.4333 334° Northwest 200 230 3,500 -1,100 Descending Toronto Center
Tue 06:41:02 PM 43.7333 -79.4667 324° Northwest 170 196 3,100 -750 Descending Toronto Center
Tue 06:42:02 PM 43.7167 -79.5167 245° Southwest 140 161 2,000 -950 Descending Toronto Center
Tue 06:43:02 PM 43.6833 -79.5333 200° South 140 161 1,200 -650 Descending Toronto Center
Tue 06:44:02 PM 43.6667 -79.5833 245° Southwest 130 150 700 -500 Descending Toronto Center

Login

Don't have an account? Register now (free) for customized features, flight alerts, and more!